Time;durP1;ratioP1;P1;durP2;ratioP2;P2;SDS_P1;SDS_P2;PMS_P1;PMS_P2;Temp;Humidity;BMP_temperature;BMP_pressure;BME280_temperature;BME280_humidity;BME280_pressure;Samples;Min_cycle;Max_cycle;Signal;HPM_P1;HPM_P2
2023/08/12 00:00:22;;;;;;;114.25;108.60;;;22.70;99.90;;;;;;5032459;28;25171;-73
2023/08/12 00:02:48;;;;;;;85.13;80.72;;;22.70;99.90;;;;;;5032134;28;20025;-73
2023/08/12 00:05:14;;;;;;;74.07;70.10;;;22.80;99.90;;;;;;5033080;28;20026;-74
2023/08/12 00:07:43;;;;;;;88.85;84.40;;;22.80;99.90;;;;;;5031986;28;20037;-73
2023/08/12 00:10:10;;;;;;;69.35;65.85;;;22.80;99.90;;;;;;5032989;28;20467;-73
2023/08/12 00:12:37;;;;;;;68.18;64.60;;;22.80;99.90;;;;;;5012318;28;20045;-73
2023/08/12 00:15:05;;;;;;;82.05;77.93;;;22.80;99.90;;;;;;5012583;28;20022;-72
2023/08/12 00:17:31;;;;;;;62.20;58.65;;;22.80;99.90;;;;;;5031217;28;20037;-73
2023/08/12 00:19:57;;;;;;;51.58;49.00;;;22.80;99.90;;;;;;5033141;28;20029;-73
2023/08/12 00:22:23;;;;;;;57.65;54.72;;;22.80;99.90;;;;;;5032815;28;20040;-73
2023/08/12 00:24:49;;;;;;;50.63;48.03;;;22.80;99.90;;;;;;5031880;28;20521;-73
2023/08/12 00:27:15;;;;;;;47.30;44.83;;;22.80;99.90;;;;;;5031492;28;20056;-73
2023/08/12 00:29:41;;;;;;;42.63;40.15;;;22.80;99.90;;;;;;5032615;28;20017;-73
2023/08/12 00:32:08;;;;;;;54.38;51.35;;;22.80;99.90;;;;;;5032088;28;20401;-73
2023/08/12 00:34:34;;;;;;;50.80;48.03;;;22.80;99.90;;;;;;5015029;28;20041;-73
2023/08/12 00:37:01;;;;;;;54.45;51.33;;;22.80;99.90;;;;;;5032425;28;20367;-73
2023/08/12 00:39:27;;;;;;;49.33;46.78;;;22.70;99.90;;;;;;5031778;28;20025;-72
2023/08/12 00:41:53;;;;;;;89.97;84.93;;;22.80;99.90;;;;;;5031252;28;20052;-73
2023/08/12 00:44:19;;;;;;;45.83;43.45;;;22.80;99.90;;;;;;5032191;28;20022;-73
2023/08/12 00:46:45;;;;;;;69.50;65.85;;;22.70;99.90;;;;;;5031967;28;20052;-73
2023/08/12 00:49:11;;;;;;;92.25;87.60;;;22.70;99.90;;;;;;5031410;28;20103;-73
2023/08/12 00:51:41;;;;;;;49.97;47.17;;;22.70;99.90;;;;;;5030226;28;20045;-73
2023/08/12 00:54:08;;;;;;;50.65;47.60;;;22.70;99.90;;;;;;5031516;28;20410;-72
2023/08/12 00:56:34;;;;;;;93.82;88.95;;;22.70;99.90;;;;;;5030933;28;20041;-73
2023/08/12 00:59:00;;;;;;;58.63;55.28;;;22.70;99.90;;;;;;5030828;28;20048;-73
2023/08/12 01:01:26;;;;;;;52.50;49.72;;;22.70;99.90;;;;;;5031753;28;20528;-73
2023/08/12 01:03:52;;;;;;;52.72;49.88;;;22.70;99.90;;;;;;5031379;28;20037;-73
2023/08/12 01:06:18;;;;;;;53.92;51.03;;;22.70;99.90;;;;;;5030733;28;20366;-73
2023/08/12 01:08:44;;;;;;;53.53;50.28;;;22.70;99.90;;;;;;5031218;28;20034;-73
2023/08/12 01:11:13;;;;;;;53.58;50.60;;;22.70;99.90;;;;;;5030916;28;20412;-73
2023/08/12 01:13:58;;;;;;;70.63;66.88;;;22.70;99.90;;;;;;5031864;28;20040;-73
2023/08/12 01:16:29;;;;;;;72.13;68.13;;;22.70;99.90;;;;;;5030117;28;20033;-73
2023/08/12 01:18:55;;;;;;;104.45;98.82;;;22.60;99.90;;;;;;5031077;28;20037;-73
2023/08/12 01:21:21;;;;;;;84.30;79.78;;;22.70;99.90;;;;;;5030801;28;20034;-73
2023/08/12 01:23:48;;;;;;;104.53;98.95;;;22.70;99.90;;;;;;5032136;28;20033;-73
2023/08/12 01:26:14;;;;;;;85.95;81.43;;;22.70;99.90;;;;;;5030367;28;20036;-73
2023/08/12 01:28:40;;;;;;;86.03;81.35;;;22.70;99.90;;;;;;5032096;28;20038;-73
2023/08/12 01:31:12;;;;;;;70.47;66.65;;;22.70;99.90;;;;;;5029971;28;20078;-73
2023/08/12 01:33:44;;;;;;;84.20;79.43;;;22.70;99.90;;;;;;5030917;28;20025;-73
2023/08/12 01:36:13;;;;;;;62.20;58.63;;;22.70;99.90;;;;;;5014370;28;20025;-73
2023/08/12 01:38:39;;;;;;;76.10;71.70;;;22.70;99.90;;;;;;5031051;28;20489;-73
2023/08/12 01:41:06;;;;;;;58.63;55.13;;;22.70;99.90;;;;;;5030324;28;20045;-73
2023/08/12 01:43:33;;;;;;;62.60;58.78;;;22.70;99.90;;;;;;5030649;28;20032;-73
2023/08/12 01:45:59;;;;;;;62.45;58.97;;;22.60;99.90;;;;;;5013789;28;20026;-73
2023/08/12 01:48:25;;;;;;;72.80;68.63;;;22.50;99.90;;;;;;5030600;28;20049;-73
2023/08/12 01:50:51;;;;;;;84.85;80.03;;;22.50;99.90;;;;;;5031578;28;20471;-73
2023/08/12 01:53:17;;;;;;;56.25;53.20;;;22.50;99.90;;;;;;5031732;28;20045;-73
2023/08/12 01:55:44;;;;;;;67.65;63.45;;;22.50;99.90;;;;;;5031316;28;20021;-73
2023/08/12 01:58:10;;;;;;;63.47;59.58;;;22.50;99.90;;;;;;5030058;28;20040;-72
2023/08/12 02:00:36;;;;;;;61.80;57.83;;;22.50;99.90;;;;;;5026708;28;20400;-72
2023/08/12 02:03:03;;;;;;;65.68;61.72;;;22.50;99.90;;;;;;5024520;28;20022;-72
2023/08/12 02:05:29;;;;;;;82.63;77.57;;;22.40;99.90;;;;;;5033767;28;20521;-72
2023/08/12 02:07:55;;;;;;;87.43;82.65;;;22.40;99.90;;;;;;5032984;28;20407;-73
2023/08/12 02:10:21;;;;;;;95.63;89.93;;;22.40;99.90;;;;;;5033582;28;20028;-72
2023/08/12 02:12:47;;;;;;;98.40;92.70;;;22.40;99.90;;;;;;5013015;28;20041;-71
2023/08/12 02:15:13;;;;;;;79.78;75.22;;;22.40;99.90;;;;;;5013094;28;20026;-72
2023/08/12 02:17:40;;;;;;;73.60;69.22;;;22.40;99.90;;;;;;5033932;28;20574;-72
2023/08/12 02:20:06;;;;;;;83.10;78.22;;;22.40;99.90;;;;;;5034233;28;20029;-72
2023/08/12 02:22:33;;;;;;;77.20;73.00;;;22.20;99.90;;;;;;5033731;28;20034;-72
2023/08/12 02:24:59;;;;;;;87.47;82.32;;;22.10;99.90;;;;;;5032381;28;20382;-72
2023/08/12 02:27:25;;;;;;;68.78;64.65;;;22.10;99.90;;;;;;5032825;28;20060;-73
2023/08/12 02:29:52;;;;;;;82.35;77.25;;;22.10;99.90;;;;;;5033838;28;20041;-72
2023/08/12 02:32:18;;;;;;;127.45;120.07;;;22.00;99.90;;;;;;5032928;28;20056;-73
2023/08/12 02:34:44;;;;;;;147.45;139.35;;;22.00;99.90;;;;;;5033888;28;20026;-72
2023/08/12 02:37:12;;;;;;;146.80;138.52;;;21.90;99.90;;;;;;5034116;28;20041;-72
2023/08/12 02:39:38;;;;;;;120.30;113.63;;;21.90;99.90;;;;;;5033482;28;20048;-72
2023/08/12 02:42:05;;;;;;;110.35;104.38;;;21.90;99.90;;;;;;5034666;28;20037;-73
2023/08/12 02:44:31;;;;;;;123.88;116.80;;;21.90;99.90;;;;;;5034921;28;20037;-72
2023/08/12 02:46:57;;;;;;;115.50;109.13;;;21.90;99.90;;;;;;5033939;28;20038;-72
2023/08/12 02:49:23;;;;;;;109.18;103.18;;;21.90;99.90;;;;;;5033605;28;20406;-73
2023/08/12 02:51:49;;;;;;;90.18;85.03;;;21.80;99.90;;;;;;5034400;28;20046;-73
2023/08/12 02:54:15;;;;;;;113.18;106.95;;;21.80;99.90;;;;;;5034592;28;20037;-72
2023/08/12 02:56:41;;;;;;;117.18;110.97;;;21.80;99.90;;;;;;5034415;28;20025;-72
2023/08/12 02:59:07;;;;;;;92.28;86.90;;;21.80;99.90;;;;;;5034600;28;20037;-73
2023/08/12 03:01:33;;;;;;;83.65;78.80;;;21.80;99.90;;;;;;5032736;28;20082;-72
2023/08/12 03:03:59;;;;;;;71.97;67.82;;;21.70;99.90;;;;;;5033459;28;20052;-73
2023/08/12 03:06:25;;;;;;;71.43;67.38;;;21.80;99.90;;;;;;5034156;28;20029;-73
2023/08/12 03:08:51;;;;;;;67.38;63.50;;;21.80;99.90;;;;;;5032932;28;20048;-72
2023/08/12 03:11:18;;;;;;;85.15;80.30;;;21.90;99.90;;;;;;5033003;28;20034;-72
2023/08/12 03:13:44;;;;;;;74.80;70.50;;;21.90;99.90;;;;;;5034367;28;20382;-73
2023/08/12 03:16:14;;;;;;;67.30;63.50;;;21.80;99.90;;;;;;5031580;28;20492;-72
2023/08/12 03:18:40;;;;;;;69.07;65.22;;;21.80;99.90;;;;;;5033171;28;20025;-73
2023/08/12 03:21:07;;;;;;;66.38;62.42;;;21.80;99.90;;;;;;5033831;28;20037;-72
2023/08/12 03:23:37;;;;;;;68.25;64.32;;;21.80;99.90;;;;;;5033991;28;20025;-72
2023/08/12 03:26:03;;;;;;;57.20;53.65;;;21.80;99.90;;;;;;5033986;28;20036;-73
2023/08/12 03:28:30;;;;;;;55.78;52.33;;;21.80;99.90;;;;;;5033980;28;20037;-72
2023/08/12 03:30:57;;;;;;;52.17;48.90;;;21.80;99.90;;;;;;5031871;28;20371;-72
2023/08/12 03:33:23;;;;;;;46.35;43.15;;;21.80;99.90;;;;;;5034019;28;20620;-72
2023/08/12 03:35:49;;;;;;;51.92;48.38;;;21.80;99.90;;;;;;5033659;28;20029;-72
2023/08/12 03:38:15;;;;;;;46.25;43.28;;;21.80;99.90;;;;;;5033563;28;20029;-72
2023/08/12 03:40:41;;;;;;;50.30;47.25;;;21.80;99.90;;;;;;5032402;28;20025;-73
2023/08/12 03:43:07;;;;;;;54.33;50.90;;;21.80;99.90;;;;;;5033600;28;20493;-72
2023/08/12 03:45:41;;;;;;;59.13;55.15;;;21.80;99.90;;;;;;5032927;28;20034;-72
2023/08/12 03:48:07;;;;;;;55.08;51.42;;;21.80;99.90;;;;;;5032504;28;20044;-71
2023/08/12 03:50:34;;;;;;;47.20;44.33;;;21.80;99.90;;;;;;5031958;28;20040;-73
2023/08/12 03:53:01;;;;;;;52.45;48.95;;;21.90;99.90;;;;;;5033162;28;20049;-72
2023/08/12 03:55:29;;;;;;;59.30;55.72;;;21.90;99.90;;;;;;5033248;28;20025;-71
2023/08/12 03:57:55;;;;;;;62.45;58.63;;;21.90;99.90;;;;;;5032342;28;20021;-72
2023/08/12 04:00:22;;;;;;;62.00;58.30;;;21.90;99.90;;;;;;5032499;28;20474;-72
2023/08/12 04:02:48;;;;;;;70.72;66.60;;;21.90;99.90;;;;;;5033453;28;20029;-72
2023/08/12 04:05:14;;;;;;;59.70;56.20;;;21.90;99.90;;;;;;5033043;28;20391;-72
2023/08/12 04:07:40;;;;;;;57.10;53.55;;;21.80;99.90;;;;;;5031583;28;20040;-72
2023/08/12 04:10:07;;;;;;;83.25;78.50;;;21.80;99.90;;;;;;5032273;28;20497;-72
2023/08/12 04:12:33;;;;;;;67.32;63.25;;;21.80;99.90;;;;;;5031384;28;20049;-72
2023/08/12 04:15:00;;;;;;;67.32;63.40;;;21.90;99.90;;;;;;5033112;28;20022;-72
2023/08/12 04:17:26;;;;;;;66.97;63.00;;;21.90;99.90;;;;;;5031260;28;20402;-72
2023/08/12 04:19:52;;;;;;;61.33;57.33;;;21.80;99.90;;;;;;5033279;28;20030;-72
2023/08/12 04:22:18;;;;;;;53.03;49.63;;;21.80;99.90;;;;;;5031227;28;20382;-72
2023/08/12 04:24:45;;;;;;;52.25;49.10;;;21.80;99.90;;;;;;5015343;28;20038;-72
2023/08/12 04:27:11;;;;;;;60.33;56.67;;;21.80;99.90;;;;;;5031489;28;20098;-72
2023/08/12 04:29:37;;;;;;;55.20;51.78;;;21.80;99.90;;;;;;5032947;28;20470;-73
2023/08/12 04:32:03;;;;;;;55.55;52.20;;;21.90;99.90;;;;;;5032255;28;20041;-72
2023/08/12 04:34:29;;;;;;;59.03;55.55;;;21.80;99.90;;;;;;5032678;28;20875;-72
2023/08/12 04:36:55;;;;;;;85.30;80.50;;;21.90;99.90;;;;;;5032551;28;20030;-72
2023/08/12 04:39:22;;;;;;;48.13;44.95;;;21.80;99.90;;;;;;5031726;28;20383;-72
2023/08/12 04:41:48;;;;;;;44.25;41.47;;;21.80;99.90;;;;;;5031664;28;20041;-72
2023/08/12 04:44:14;;;;;;;60.97;57.28;;;21.80;99.90;;;;;;5032705;28;20052;-72
2023/08/12 04:46:40;;;;;;;75.68;71.53;;;21.90;99.90;;;;;;5032149;28;20033;-72
2023/08/12 04:49:07;;;;;;;77.55;73.28;;;21.90;99.90;;;;;;5032526;28;20037;-72
2023/08/12 04:51:33;;;;;;;69.70;65.63;;;21.80;99.90;;;;;;5032182;28;20037;-72
2023/08/12 04:54:01;;;;;;;64.25;60.80;;;21.80;99.90;;;;;;5031512;28;20036;-72
2023/08/12 04:56:29;;;;;;;64.53;60.78;;;21.80;99.90;;;;;;5032479;28;20045;-72
2023/08/12 04:58:55;;;;;;;68.90;64.78;;;21.80;99.90;;;;;;5030929;28;20537;-72
2023/08/12 05:01:22;;;;;;;68.93;65.03;;;21.80;99.90;;;;;;5032021;28;20029;-72
2023/08/12 05:03:48;;;;;;;61.05;57.60;;;21.80;99.90;;;;;;5032442;28;20052;-72
2023/08/12 05:06:14;;;;;;;68.20;64.57;;;21.80;99.90;;;;;;5032516;28;20025;-72
2023/08/12 05:08:40;;;;;;;67.32;63.38;;;21.70;99.90;;;;;;5032382;28;20033;-73
2023/08/12 05:11:06;;;;;;;57.92;54.35;;;21.80;99.90;;;;;;5031084;28;20033;-72
2023/08/12 05:13:32;;;;;;;60.13;56.67;;;21.80;99.90;;;;;;5031124;28;20033;-72
2023/08/12 05:15:58;;;;;;;73.97;69.97;;;21.70;99.90;;;;;;5030707;28;20029;-72
2023/08/12 05:18:24;;;;;;;64.53;60.90;;;21.80;99.90;;;;;;5030723;28;20040;-73
2023/08/12 05:20:51;;;;;;;69.25;65.10;;;21.70;99.90;;;;;;5032743;28;20034;-72
2023/08/12 05:23:17;;;;;;;63.13;59.40;;;21.80;99.90;;;;;;5032230;28;20030;-72
2023/08/12 05:25:43;;;;;;;76.88;72.82;;;21.80;99.90;;;;;;5032163;28;20383;-72
2023/08/12 05:28:09;;;;;;;63.75;60.15;;;21.80;99.90;;;;;;5032185;28;20038;-72
2023/08/12 05:30:35;;;;;;;89.15;84.00;;;21.80;99.90;;;;;;5031699;28;20422;-72
2023/08/12 05:33:02;;;;;;;80.05;75.72;;;21.80;99.90;;;;;;5030665;28;20026;-72
2023/08/12 05:35:28;;;;;;;56.95;53.22;;;21.80;99.90;;;;;;5030947;28;20029;-72
2023/08/12 05:37:54;;;;;;;57.80;54.22;;;21.80;99.90;;;;;;5031376;28;20391;-73
2023/08/12 05:40:20;;;;;;;60.65;57.28;;;21.70;99.90;;;;;;5036239;28;20030;-74
2023/08/12 05:42:46;;;;;;;49.60;46.40;;;21.70;99.90;;;;;;5034855;28;20367;-72
2023/08/12 05:45:12;;;;;;;82.55;77.63;;;21.60;99.90;;;;;;5035762;28;20036;-72
2023/08/12 05:47:38;;;;;;;69.05;64.65;;;21.70;99.90;;;;;;5035437;28;20029;-73
2023/08/12 05:50:06;;;;;;;47.80;44.75;;;21.60;99.90;;;;;;5034613;28;20044;-72
2023/08/12 05:52:32;;;;;;;72.97;68.80;;;21.60;99.90;;;;;;5035833;28;20064;-72
2023/08/12 05:54:58;;;;;;;43.25;40.22;;;21.50;99.90;;;;;;5018351;28;20052;-72
2023/08/12 05:57:24;;;;;;;52.05;48.85;;;21.40;99.90;;;;;;5034718;28;20041;-72
2023/08/12 05:59:51;;;;;;;36.47;34.03;;;21.40;99.90;;;;;;5035835;28;20463;-72
2023/08/12 06:02:17;;;;;;;35.95;33.53;;;21.40;99.90;;;;;;5033711;28;20053;-72
2023/08/12 06:04:43;;;;;;;31.98;29.88;;;21.40;99.90;;;;;;5035956;28;20025;-72
2023/08/12 06:07:09;;;;;;;32.35;30.13;;;21.40;99.90;;;;;;5035700;28;20474;-72
2023/08/12 06:09:35;;;;;;;36.83;34.63;;;21.40;99.90;;;;;;5035610;28;20048;-72
2023/08/12 06:12:01;;;;;;;48.88;45.83;;;21.30;99.90;;;;;;5035859;28;20390;-72
2023/08/12 06:14:28;;;;;;;46.67;43.83;;;21.30;99.90;;;;;;5035497;28;20048;-72
2023/08/12 06:16:54;;;;;;;49.50;46.47;;;21.30;99.90;;;;;;5033467;28;20030;-72
2023/08/12 06:19:20;;;;;;;41.30;38.88;;;21.30;99.90;;;;;;5035456;28;20022;-72
2023/08/12 06:21:46;;;;;;;47.10;44.33;;;21.40;99.90;;;;;;5034185;28;20030;-72
2023/08/12 06:24:12;;;;;;;51.80;48.28;;;21.50;99.90;;;;;;5035484;28;20386;-72
2023/08/12 06:26:38;;;;;;;78.25;73.70;;;21.50;99.90;;;;;;5035254;28;20022;-72
2023/08/12 06:29:04;;;;;;;78.55;74.35;;;21.60;99.90;;;;;;5035269;28;20056;-72
2023/08/12 06:31:30;;;;;;;105.38;99.93;;;21.50;99.90;;;;;;5034375;28;20029;-72
2023/08/12 06:33:56;;;;;;;104.20;98.47;;;21.50;99.90;;;;;;5035066;28;20033;-72
2023/08/12 06:36:23;;;;;;;112.10;106.28;;;21.50;99.90;;;;;;5035125;28;20025;-72
2023/08/12 06:38:49;;;;;;;78.63;74.05;;;21.50;99.90;;;;;;5017229;28;20037;-72
2023/08/12 06:41:15;;;;;;;82.00;77.35;;;21.50;99.90;;;;;;5033788;28;20032;-72
2023/08/12 06:43:41;;;;;;;82.15;77.43;;;21.60;99.90;;;;;;5034817;28;20052;-72
2023/08/12 06:46:07;;;;;;;73.35;69.32;;;21.60;99.90;;;;;;5034180;28;20109;-72
2023/08/12 06:48:33;;;;;;;36.40;33.67;;;21.60;99.90;;;;;;5033619;28;20037;-72
2023/08/12 06:50:59;;;;;;;47.30;44.33;;;21.70;99.90;;;;;;5033389;28;20026;-72
2023/08/12 06:53:26;;;;;;;46.17;43.38;;;21.80;99.90;;;;;;5033619;28;20042;-72
2023/08/12 06:55:52;;;;;;;81.93;77.50;;;21.90;99.90;;;;;;5033550;28;20026;-72
2023/08/12 06:58:18;;;;;;;113.50;107.80;;;21.90;99.90;;;;;;5034732;28;20025;-72
2023/08/12 07:00:44;;;;;;;120.57;114.13;;;21.80;99.90;;;;;;5033984;28;20036;-72
2023/08/12 07:03:10;;;;;;;79.20;74.38;;;21.90;99.90;;;;;;5034658;28;20479;-72
2023/08/12 07:05:36;;;;;;;51.60;48.45;;;22.10;99.90;;;;;;5034500;28;20044;-72
2023/08/12 07:08:03;;;;;;;51.25;48.45;;;22.30;99.90;;;;;;5034529;28;20029;-72
2023/08/12 07:10:29;;;;;;;55.00;51.83;;;22.50;99.90;;;;;;5034545;28;20033;-73
2023/08/12 07:12:55;;;;;;;49.38;46.58;;;22.60;99.90;;;;;;5034992;28;20060;-73
2023/08/12 07:15:21;;;;;;;49.58;46.75;;;22.60;99.90;;;;;;5032206;28;20502;-73
2023/08/12 07:17:47;;;;;;;54.65;51.33;;;22.70;99.90;;;;;;5033255;28;20034;-75
2023/08/12 07:20:13;;;;;;;41.40;38.70;;;22.80;99.90;;;;;;5034305;28;20368;-75
2023/08/12 07:22:39;;;;;;;42.03;39.58;;;23.00;99.90;;;;;;5034325;28;20040;-73
2023/08/12 07:25:06;;;;;;;42.55;40.05;;;23.20;99.90;;;;;;5034262;28;20475;-73
2023/08/12 07:27:32;;;;;;;50.40;47.47;;;23.50;99.90;;;;;;5034091;28;20029;-73
2023/08/12 07:29:58;;;;;;;54.85;51.60;;;23.60;99.90;;;;;;5032668;28;20486;-74
2023/08/12 07:32:24;;;;;;;51.47;48.53;;;23.70;99.90;;;;;;5033657;28;20120;-74
2023/08/12 07:34:50;;;;;;;45.25;42.65;;;23.90;99.90;;;;;;5032823;28;20494;-73
2023/08/12 07:37:16;;;;;;;38.70;36.40;;;24.10;99.90;;;;;;5034089;28;20049;-74
2023/08/12 07:39:42;;;;;;;50.70;47.78;;;24.20;99.90;;;;;;5033975;28;20057;-73
2023/08/12 07:42:08;;;;;;;47.15;44.45;;;24.30;99.90;;;;;;5033847;28;20029;-73
2023/08/12 07:44:34;;;;;;;45.13;42.45;;;24.40;99.90;;;;;;5032347;28;20022;-74
2023/08/12 07:47:00;;;;;;;51.05;48.22;;;24.50;99.90;;;;;;5031999;28;20037;-74
2023/08/12 07:49:26;;;;;;;60.88;57.40;;;24.70;99.90;;;;;;5033671;28;20042;-74
2023/08/12 07:51:53;;;;;;;52.92;49.97;;;24.90;99.90;;;;;;5033500;28;20057;-73
2023/08/12 07:54:19;;;;;;;64.72;61.10;;;24.90;99.90;;;;;;5033644;28;20025;-74
2023/08/12 07:56:45;;;;;;;56.10;52.72;;;25.00;99.90;;;;;;5033944;28;20037;-74
2023/08/12 07:59:11;;;;;;;61.55;58.05;;;25.20;99.90;;;;;;5033143;28;20041;-73
2023/08/12 08:01:37;;;;;;;54.47;51.45;;;25.40;99.90;;;;;;5031727;28;20412;-73
2023/08/12 08:04:03;;;;;;;64.88;61.17;;;25.50;99.90;;;;;;5033513;28;20026;-73
2023/08/12 08:06:29;;;;;;;86.50;82.03;;;25.60;99.90;;;;;;5033472;28;20025;-74
2023/08/12 08:08:56;;;;;;;70.05;66.38;;;25.80;99.90;;;;;;5015189;28;20060;-74
2023/08/12 08:11:23;;;;;;;75.05;71.03;;;25.90;99.90;;;;;;5032152;28;20057;-74
2023/08/12 08:13:49;;;;;;;75.35;71.30;;;26.00;99.90;;;;;;5015223;28;20052;-74
2023/08/12 08:16:15;;;;;;;64.78;61.33;;;26.10;99.90;;;;;;5032925;28;20033;-74
2023/08/12 08:18:41;;;;;;;68.45;64.45;;;26.30;99.90;;;;;;5033242;28;20044;-74
2023/08/12 08:21:07;;;;;;;73.65;69.57;;;26.40;99.90;;;;;;5033176;28;20033;-75
2023/08/12 08:23:33;;;;;;;79.13;74.95;;;26.50;99.90;;;;;;5033135;28;20025;-74
2023/08/12 08:25:59;;;;;;;90.18;85.53;;;26.50;99.90;;;;;;5032942;28;20032;-74
2023/08/12 08:28:26;;;;;;;70.47;66.63;;;26.50;99.90;;;;;;5032593;28;20033;-74
2023/08/12 08:30:52;;;;;;;79.97;75.60;;;26.40;99.90;;;;;;5032565;28;20040;-74
2023/08/12 08:33:18;;;;;;;80.50;76.28;;;26.50;99.90;;;;;;5031848;28;20025;-74
2023/08/12 08:35:44;;;;;;;98.65;93.55;;;26.50;99.90;;;;;;5031775;28;20040;-74
2023/08/12 08:38:10;;;;;;;111.95;106.25;;;26.60;99.90;;;;;;5033255;28;20395;-74
2023/08/12 08:40:36;;;;;;;182.18;173.20;;;26.70;99.90;;;;;;5031716;28;20033;-74
2023/08/12 08:43:06;;;;;;;138.18;131.23;;;26.90;99.90;;;;;;5032325;28;20033;-75
2023/08/12 08:45:32;;;;;;;142.45;135.25;;;27.00;99.90;;;;;;5031187;28;20041;-74
2023/08/12 08:47:58;;;;;;;105.18;99.80;;;26.90;99.90;;;;;;5031438;28;20033;-74
2023/08/12 08:50:24;;;;;;;146.07;138.68;;;26.90;99.90;;;;;;5030734;28;20041;-75
2023/08/12 08:52:50;;;;;;;166.10;157.52;;;27.00;99.90;;;;;;5032441;28;20398;-74
2023/08/12 08:55:17;;;;;;;157.52;149.45;;;27.10;99.90;;;;;;5031348;28;20025;-74
2023/08/12 08:57:44;;;;;;;120.95;114.53;;;27.30;99.90;;;;;;5031054;28;20022;-74
2023/08/12 09:00:12;;;;;;;122.90;116.80;;;27.10;99.90;;;;;;5030661;28;20033;-74
2023/08/12 09:02:38;;;;;;;157.77;149.82;;;27.00;99.90;;;;;;5031298;28;20024;-74
2023/08/12 09:05:05;;;;;;;237.57;225.68;;;27.20;99.90;;;;;;5031232;28;20119;-74
2023/08/12 09:07:31;;;;;;;228.82;217.50;;;27.20;99.90;;;;;;5031272;28;20383;-74
2023/08/12 09:09:57;;;;;;;226.15;214.82;;;27.30;99.90;;;;;;5031171;28;20044;-74
2023/08/12 09:12:23;;;;;;;248.43;236.05;;;27.40;99.90;;;;;;5030486;28;20029;-74
2023/08/12 09:14:49;;;;;;;230.77;219.07;;;27.30;99.90;;;;;;5030808;28;20029;-73
2023/08/12 09:17:16;;;;;;;216.43;205.70;;;27.20;99.90;;;;;;5030623;28;20032;-74
2023/08/12 09:19:42;;;;;;;211.23;200.68;;;27.10;99.90;;;;;;5031125;28;20021;-74
2023/08/12 09:22:11;;;;;;;219.10;208.27;;;27.00;99.90;;;;;;5032384;28;20022;-73
2023/08/12 09:24:37;;;;;;;207.38;196.85;;;27.10;99.90;;;;;;5032185;28;20030;-74
2023/08/12 09:27:04;;;;;;;187.80;178.27;;;27.10;99.90;;;;;;5030557;28;20391;-74
2023/08/12 09:29:31;;;;;;;150.48;142.77;;;27.10;99.90;;;;;;5032074;28;20399;-74
2023/08/12 09:32:07;;;;;;;156.95;148.77;;;27.20;99.90;;;;;;5030447;28;20033;-73
2023/08/12 09:34:33;;;;;;;134.82;127.85;;;27.40;99.90;;;;;;5032005;28;20022;-74
2023/08/12 09:36:59;;;;;;;180.15;170.88;;;27.50;99.90;;;;;;5030895;28;20029;-74
2023/08/12 09:39:26;;;;;;;227.32;216.20;;;27.60;99.90;;;;;;5030624;28;20029;-74
2023/08/12 09:41:52;;;;;;;219.43;208.38;;;27.70;99.90;;;;;;5030954;28;20391;-74
2023/08/12 09:44:18;;;;;;;175.65;166.68;;;27.80;99.90;;;;;;5031895;28;20029;-73
2023/08/12 09:46:44;;;;;;;168.32;159.82;;;27.90;99.90;;;;;;5030225;28;20052;-73
2023/08/12 09:49:10;;;;;;;167.05;158.45;;;27.60;99.90;;;;;;5031792;28;20414;-74
2023/08/12 09:51:36;;;;;;;183.25;173.85;;;27.60;99.90;;;;;;5031788;28;20037;-74
2023/08/12 09:54:03;;;;;;;218.68;207.60;;;27.60;99.90;;;;;;5030513;28;20488;-74
2023/08/12 09:56:32;;;;;;;234.27;222.38;;;27.60;99.90;;;;;;5031924;28;20022;-74
2023/08/12 09:58:58;;;;;;;127.75;121.43;;;27.60;99.90;;;;;;5030683;28;20025;-73
2023/08/12 10:01:24;;;;;;;106.65;100.95;;;27.60;99.90;;;;;;5030301;28;20028;-73
2023/08/12 10:03:53;;;;;;;182.60;173.55;;;27.60;99.90;;;;;;5030613;28;20045;-73
2023/08/12 10:06:19;;;;;;;175.27;166.15;;;27.30;99.90;;;;;;5030653;28;20386;-73
2023/08/12 10:08:46;;;;;;;166.02;157.57;;;27.40;99.90;;;;;;5030430;28;20042;-74
2023/08/12 10:11:12;;;;;;;177.82;168.50;;;27.40;99.90;;;;;;5014457;28;20040;-73
2023/08/12 10:13:39;;;;;;;181.13;171.85;;;27.20;99.90;;;;;;5030674;28;20033;-73
2023/08/12 10:16:06;;;;;;;158.63;150.55;;;27.40;99.90;;;;;;5030149;28;20033;-74
2023/08/12 10:18:32;;;;;;;214.70;203.60;;;27.50;99.90;;;;;;5014392;28;20030;-73
2023/08/12 10:20:59;;;;;;;162.13;153.68;;;27.60;99.90;;;;;;5030497;28;20038;-74
2023/08/12 10:23:25;;;;;;;137.57;130.63;;;27.60;99.90;;;;;;5030289;28;20040;-74
2023/08/12 10:25:54;;;;;;;153.02;145.05;;;27.60;99.90;;;;;;5033677;28;20454;-73
2023/08/12 10:28:20;;;;;;;162.73;154.13;;;27.70;99.90;;;;;;5033964;28;20036;-74
2023/08/12 10:30:46;;;;;;;195.20;184.98;;;27.70;99.90;;;;;;5013901;28;20037;-74
2023/08/12 10:33:16;;;;;;;179.35;170.15;;;27.80;99.90;;;;;;5014376;28;20030;-74
2023/08/12 10:35:49;;;;;;;165.60;157.30;;;27.80;99.90;;;;;;5014143;28;20029;-74
2023/08/12 10:38:19;;;;;;;129.32;122.60;;;27.80;99.90;;;;;;5013945;28;20029;-74
2023/08/12 10:40:45;;;;;;;138.20;131.15;;;27.80;99.90;;;;;;5014260;28;20030;-73
2023/08/12 10:43:13;;;;;;;187.05;177.63;;;27.70;99.90;;;;;;5020450;28;20034;-74
2023/08/12 10:45:51;;;;;;;181.98;172.55;;;27.50;99.90;;;;;;5032825;28;20037;-74
2023/08/12 10:48:24;;;;;;;179.60;170.32;;;27.60;99.90;;;;;;5034988;28;20048;-74
2023/08/12 10:50:55;;;;;;;124.97;118.63;;;27.70;99.90;;;;;;5033570;28;20033;-74
2023/08/12 10:53:22;;;;;;;132.70;125.88;;;27.90;99.90;;;;;;5033352;28;20049;-74
2023/08/12 10:55:49;;;;;;;122.30;115.90;;;28.00;99.90;;;;;;5034831;28;20033;-74
2023/08/12 10:58:28;;;;;;;135.15;128.20;;;28.00;99.90;;;;;;5033599;28;20040;-73
2023/08/12 11:00:55;;;;;;;129.13;122.43;;;28.00;99.90;;;;;;5032825;28;20026;-74
2023/08/12 11:03:21;;;;;;;131.73;124.90;;;28.10;99.90;;;;;;5034766;28;20022;-74
2023/08/12 11:05:48;;;;;;;152.05;144.13;;;28.10;99.90;;;;;;5033296;28;20033;-73
2023/08/12 11:08:14;;;;;;;131.27;124.60;;;28.10;99.50;;;;;;5034381;28;20025;-73
2023/08/12 11:10:40;;;;;;;124.18;118.00;;;28.20;99.90;;;;;;5034458;28;20482;-74
2023/08/12 11:13:06;;;;;;;123.32;116.85;;;28.10;99.90;;;;;;5033332;28;20029;-74
2023/08/12 11:15:37;;;;;;;130.95;124.10;;;28.00;99.80;;;;;;5032852;28;20030;-73
2023/08/12 11:18:23;;;;;;;123.05;116.57;;;27.90;99.50;;;;;;5033214;28;20491;-74
2023/08/12 11:20:49;;;;;;;125.82;119.25;;;27.90;99.90;;;;;;5033685;28;20048;-73
2023/08/12 11:23:16;;;;;;;123.50;117.25;;;28.00;99.70;;;;;;5033117;28;20379;-74
2023/08/12 11:25:43;;;;;;;139.13;131.88;;;28.00;99.40;;;;;;5032902;28;20044;-73
2023/08/12 11:28:09;;;;;;;127.40;120.80;;;28.10;98.30;;;;;;5016763;28;20041;-73
2023/08/12 11:30:36;;;;;;;130.73;123.90;;;28.10;99.80;;;;;;5033665;28;20506;-74
2023/08/12 11:33:02;;;;;;;132.18;125.25;;;28.20;99.70;;;;;;5032858;28;20387;-74
2023/08/12 11:35:29;;;;;;;133.18;126.43;;;28.30;99.50;;;;;;5032190;28;20052;-74
2023/08/12 11:37:58;;;;;;;133.10;126.45;;;28.30;99.90;;;;;;5033809;28;20029;-74
2023/08/12 11:40:26;;;;;;;149.60;142.02;;;28.40;99.40;;;;;;5032655;28;20382;-73
2023/08/12 11:42:53;;;;;;;138.63;131.48;;;28.50;98.60;;;;;;5032725;28;20028;-74
2023/08/12 11:45:20;;;;;;;145.95;138.52;;;28.50;98.90;;;;;;5033433;28;20477;-74
2023/08/12 11:47:52;;;;;;;126.85;120.22;;;28.30;98.70;;;;;;5015860;28;20040;-74
2023/08/12 11:50:20;;;;;;;135.73;128.82;;;28.30;99.50;;;;;;5033273;28;20038;-74
2023/08/12 11:52:46;;;;;;;148.85;141.00;;;28.50;98.50;;;;;;5032535;28;20042;-74
2023/08/12 11:55:12;;;;;;;140.52;133.18;;;28.60;98.40;;;;;;5033616;28;20039;-74
2023/08/12 11:57:42;;;;;;;147.35;139.82;;;28.60;98.40;;;;;;5032385;28;20037;-73
2023/08/12 12:00:13;;;;;;;143.68;136.13;;;28.40;97.30;;;;;;5033243;28;20459;-73
2023/08/12 12:02:48;;;;;;;147.65;140.20;;;28.30;97.90;;;;;;5033609;28;20022;-74
2023/08/12 12:05:14;;;;;;;159.85;151.65;;;28.30;97.60;;;;;;5033122;28;20040;-74
2023/08/12 12:07:41;;;;;;;146.35;138.82;;;28.30;97.40;;;;;;5032136;28;20032;-74
2023/08/12 12:10:07;;;;;;;125.50;119.03;;;28.20;96.90;;;;;;5032227;28;20041;-74
2023/08/12 12:12:37;;;;;;;131.20;124.45;;;28.10;98.10;;;;;;5033483;28;20030;-74
2023/08/12 12:15:03;;;;;;;128.68;122.00;;;28.10;99.00;;;;;;5032774;28;20025;-73
2023/08/12 12:17:30;;;;;;;143.52;135.98;;;28.30;98.60;;;;;;5032161;28;20025;-73